TimeCST,TemperatureF,Dew PointF,Humidity,Sea Level PressureIn,VisibilityMPH,Wind Direction,Wind SpeedMPH,Gust SpeedMPH,PrecipitationIn,Events,Conditions,WindDirDegrees,DateUTC
12:18 AM,32.0,32.0,100,29.67,10.0,NNW,17.3,21.9,N/A,Snow,Light Snow,330,2013-01-30 06:18:00
12:24 AM,32.0,32.0,100,29.67,10.0,NNW,13.8,21.9,N/A,Snow,Light Snow,330,2013-01-30 06:24:00
12:32 AM,30.2,30.2,100,29.67,7.0,NNW,17.3,26.5,N/A,Snow,Light Snow,330,2013-01-30 06:32:00
12:40 AM,30.2,30.2,100,29.67,5.0,NNW,18.4,29.9,N/A,Snow,Light Snow,340,2013-01-30 06:40:00
12:55 AM,30.0,29.8,99,29.66,4.0,NNW,24.2,32.2,0.00,Snow,Light Snow,330,2013-01-30 06:55:00
1:15 AM,30.2,28.4,93,29.66,10.0,NNW,19.6,28.8,N/A,Snow,Light Snow,330,2013-01-30 07:15:00
1:28 AM,28.4,28.4,100,29.66,7.0,NNW,18.4,27.6,N/A,Snow,Light Snow,340,2013-01-30 07:28:00
1:55 AM,28.2,28.0,99,29.68,10.0,NNW,19.6,29.9,0.00,Snow,Light Snow,340,2013-01-30 07:55:00
2:25 AM,28.4,28.4,100,29.68,10.0,NNW,13.8,24.2,N/A,Snow,Light Snow,330,2013-01-30 08:25:00
2:51 AM,26.6,26.6,100,29.71,10.0,NNW,19.6,27.6,N/A,Snow,Light Snow,330,2013-01-30 08:51:00
2:53 AM,26.6,26.6,100,29.71,10.0,NNW,19.6,27.6,N/A,Snow,Light Snow,330,2013-01-30 08:53:00
2:55 AM,27.1,27.0,99,29.71,10.0,NNW,17.3,27.6,0.00,Snow,Light Snow,330,2013-01-30 08:55:00
3:00 AM,26.6,26.6,100,29.71,10.0,NNW,21.9,28.8,N/A,Snow,Light Snow,330,2013-01-30 09:00:00
3:16 AM,26.6,26.6,100,29.72,5.0,NNW,18.4,29.9,N/A,Snow,Light Snow,330,2013-01-30 09:16:00
3:23 AM,26.6,26.6,100,29.72,2.5,NNW,19.6,25.3,N/A,Snow,Light Snow,330,2013-01-30 09:23:00
3:27 AM,26.6,26.6,100,29.72,1.8,NNW,19.6,26.5,N/A,Snow,Light Snow,330,2013-01-30 09:27:00
3:29 AM,26.6,26.6,100,29.72,1.5,NNW,21.9,28.8,N/A,Snow,Light Snow,330,2013-01-30 09:29:00
3:43 AM,26.6,24.8,93,29.72,2.0,NNW,20.7,27.6,N/A,,Overcast,330,2013-01-30 09:43:00
3:55 AM,25.5,25.3,99,29.72,0.8,NNW,21.9,35.7,0.00,Snow,Light Snow,330,2013-01-30 09:55:00
4:09 AM,24.8,24.8,100,29.72,0.8,NNW,21.9,29.9,N/A,Snow,Light Snow,340,2013-01-30 10:09:00
4:11 AM,24.8,24.8,100,29.72,4.0,NNW,19.6,29.9,N/A,,Overcast,340,2013-01-30 10:11:00
4:19 AM,24.8,24.8,100,29.73,6.0,NNW,21.9,29.9,N/A,Snow,Light Snow,330,2013-01-30 10:19:00
4:28 AM,24.8,24.8,100,29.73,0.8,NNW,26.5,33.4,N/A,Snow,Light Snow,330,2013-01-30 10:28:00
4:37 AM,24.8,24.8,100,29.73,0.8,NNW,18.4,33.4,N/A,Snow,Light Snow,330,2013-01-30 10:37:00
4:46 AM,24.8,24.8,100,29.74,0.8,NNW,21.9,29.9,N/A,Snow,Light Snow,340,2013-01-30 10:46:00
4:55 AM,24.4,24.1,99,29.74,1.0,NNW,21.9,27.6,0.00,Snow,Light Snow,340,2013-01-30 10:55:00
5:54 AM,23.0,23.0,100,29.75,1.0,NNW,18.4,28.8,N/A,Snow,Light Snow,330,2013-01-30 11:54:00
5:55 AM,23.7,23.2,98,29.75,1.0,NNW,18.4,28.8,0.00,Snow,Light Snow,330,2013-01-30 11:55:00
6:33 AM,23.0,21.2,93,29.76,1.2,NNW,21.9,31.1,N/A,Snow,Light Snow,330,2013-01-30 12:33:00
6:51 AM,23.0,23.0,100,29.76,1.2,NNW,21.9,26.5,N/A,Snow,Light Snow,330,2013-01-30 12:51:00
6:55 AM,23.2,21.9,95,29.76,1.2,NNW,18.4,-,0.00,Snow,Light Snow,330,2013-01-30 12:55:00
7:15 AM,23.0,21.2,93,29.78,1.8,NW,19.6,27.6,N/A,Snow,Light Snow,320,2013-01-30 13:15:00
7:35 AM,24.8,17.6,74,29.78,10.0,NNW,21.9,35.7,N/A,Snow,Light Snow,330,2013-01-30 13:35:00
7:45 AM,24.8,17.6,74,29.78,10.0,NW,21.9,31.1,N/A,Snow,Light Snow,320,2013-01-30 13:45:00
7:46 AM,24.8,17.6,74,29.78,10.0,NW,20.7,31.1,N/A,Snow,Light Snow,320,2013-01-30 13:46:00
7:47 AM,24.8,17.6,74,29.78,10.0,NW,21.9,31.1,N/A,Snow,Light Snow,320,2013-01-30 13:47:00
7:49 AM,24.8,17.6,74,29.79,10.0,NNW,20.7,31.1,N/A,Snow,Light Snow,330,2013-01-30 13:49:00
7:50 AM,24.8,17.6,74,29.79,10.0,NNW,19.6,31.1,N/A,Snow,Light Snow,330,2013-01-30 13:50:00
7:52 AM,23.0,17.6,80,29.75,2.0,NNW,18.4,31.1,N/A,Snow,Light Snow,330,2013-01-30 13:52:00
7:55 AM,23.9,18.0,78,29.79,10.0,NNW,18.4,31.1,0.00,Snow,Light Snow,330,2013-01-30 13:55:00
8:03 AM,23.0,17.6,80,29.75,10.0,NNW,20.7,31.1,N/A,Snow,Light Snow,330,2013-01-30 14:03:00
8:07 AM,23.0,17.6,80,29.76,10.0,NW,23.0,31.1,N/A,,Mostly Cloudy,320,2013-01-30 14:07:00
8:22 AM,23.0,17.6,80,29.80,10.0,NW,20.7,36.8,N/A,Snow,Light Snow,320,2013-01-30 14:22:00
8:23 AM,23.0,17.6,80,29.80,10.0,NW,20.7,36.8,N/A,Snow,Light Snow,320,2013-01-30 14:23:00
8:25 AM,23.0,17.6,80,29.80,10.0,NNW,23.0,36.8,N/A,Snow,Light Snow,330,2013-01-30 14:25:00
8:30 AM,23.0,17.6,80,29.81,10.0,NW,20.7,32.2,N/A,,Mostly Cloudy,320,2013-01-30 14:30:00
8:31 AM,23.0,17.6,80,29.81,10.0,NW,24.2,32.2,N/A,Snow,Light Snow,320,2013-01-30 14:31:00
8:44 AM,23.0,17.6,80,29.81,10.0,NW,17.3,29.9,N/A,Snow,Light Snow,320,2013-01-30 14:44:00
8:55 AM,23.5,18.1,80,29.82,10.0,NW,20.7,29.9,0.00,Snow,Light Snow,320,2013-01-30 14:55:00
9:17 AM,23.0,19.4,86,29.78,2.0,NW,25.3,34.5,N/A,Snow,Light Snow,320,2013-01-30 15:17:00
9:45 AM,23.0,17.6,80,29.80,3.0,WNW,17.3,32.2,N/A,Snow,Light Snow,300,2013-01-30 15:45:00
9:55 AM,23.0,16.9,77,29.84,10.0,NNW,17.3,28.8,0.00,Snow,Light Snow,330,2013-01-30 15:55:00
10:55 AM,23.2,15.8,73,29.86,10.0,NW,19.6,32.2,0.00,Snow,Light Snow,320,2013-01-30 16:55:00
11:33 AM,24.8,15.8,69,29.86,10.0,NW,18.4,23.0,N/A,Snow,Light Snow,320,2013-01-30 17:33:00
11:45 AM,23.0,17.6,80,29.85,10.0,NW,18.4,28.8,N/A,Snow,Light Snow,320,2013-01-30 17:45:00
11:55 AM,23.9,15.1,69,29.85,10.0,NW,18.4,-,0.00,Snow,Light Snow,320,2013-01-30 17:55:00
12:24 PM,24.8,15.8,69,29.86,10.0,WNW,25.3,29.9,N/A,Snow,Light Snow,300,2013-01-30 18:24:00
12:26 PM,24.8,17.6,74,29.86,10.0,NW,20.7,29.9,N/A,Snow,Light Snow,310,2013-01-30 18:26:00
12:35 PM,23.0,17.6,80,29.86,10.0,NW,19.6,-,N/A,Snow,Light Snow,310,2013-01-30 18:35:00
12:39 PM,23.0,17.6,80,29.81,10.0,NW,19.6,-,N/A,,Mostly Cloudy,310,2013-01-30 18:39:00
12:44 PM,24.8,15.8,69,29.86,10.0,NW,20.7,26.5,N/A,Snow,Light Snow,310,2013-01-30 18:44:00
12:45 PM,24.8,15.8,69,29.86,10.0,NW,18.4,26.5,N/A,Snow,Light Snow,320,2013-01-30 18:45:00
12:48 PM,24.8,15.8,69,29.81,10.0,NW,20.7,26.5,N/A,,Mostly Cloudy,320,2013-01-30 18:48:00
12:51 PM,24.8,15.8,69,29.86,10.0,NW,19.6,26.5,N/A,Snow,Light Snow,320,2013-01-30 18:51:00
12:55 PM,24.4,15.6,69,29.86,10.0,NW,19.6,26.5,0.00,Snow,Light Snow,320,2013-01-30 18:55:00
1:08 PM,24.8,17.6,74,29.86,10.0,NW,19.6,29.9,N/A,Snow,Light Snow,310,2013-01-30 19:08:00
1:09 PM,24.8,17.6,74,29.81,10.0,NW,20.7,27.6,N/A,,Mostly Cloudy,310,2013-01-30 19:09:00
1:11 PM,24.8,15.8,69,29.86,10.0,NW,23.0,27.6,N/A,Snow,Light Snow,310,2013-01-30 19:11:00
1:13 PM,24.8,15.8,69,29.86,10.0,NW,18.4,27.6,N/A,Snow,Light Snow,320,2013-01-30 19:13:00
1:15 PM,24.8,15.8,69,29.86,10.0,NW,21.9,29.9,N/A,Snow,Light Snow,310,2013-01-30 19:15:00
1:16 PM,24.8,15.8,69,29.86,10.0,NW,23.0,29.9,N/A,Snow,Light Snow,310,2013-01-30 19:16:00
1:37 PM,24.8,15.8,69,29.81,10.0,NW,21.9,-,N/A,,Mostly Cloudy,310,2013-01-30 19:37:00
1:55 PM,25.0,15.3,67,29.85,10.0,NW,21.9,29.9,0.00,Snow,Light Snow,320,2013-01-30 19:55:00
1:56 PM,24.8,15.8,69,29.92,10.0,NW,21.9,29.9,N/A,,Mostly Cloudy,320,2013-01-30 19:56:00
2:57 PM,24.8,14.0,64,29.92,10.0,NW,18.4,28.8,N/A,,Overcast,310,2013-01-30 20:57:00
3:59 PM,23.0,12.2,63,29.95,10.0,NNW,17.3,27.6,N/A,,Scattered Clouds,330,2013-01-30 21:59:00
4:55 PM,23.5,13.3,65,29.90,10.0,WNW,17.3,-,N/A,,Overcast,300,2013-01-30 22:55:00
5:55 PM,21.9,13.5,70,29.91,10.0,NW,9.2,-,N/A,,Partly Cloudy,310,2013-01-30 23:55:00
6:55 PM,17.6,11.8,78,29.92,10.0,WNW,8.1,-,N/A,,Mostly Cloudy,300,2013-01-31 00:55:00
7:55 PM,18.0,11.5,76,29.93,10.0,WNW,11.5,-,N/A,,Clear,300,2013-01-31 01:55:00
8:55 PM,18.7,12.4,76,29.95,10.0,NW,9.2,-,N/A,,Mostly Cloudy,320,2013-01-31 02:55:00
9:20 PM,19.4,12.2,74,29.94,10.0,NW,8.1,-,N/A,Snow,Light Snow,320,2013-01-31 03:20:00
9:25 PM,19.4,12.2,74,29.89,10.0,NW,10.4,-,N/A,,Overcast,320,2013-01-31 03:25:00
9:31 PM,17.6,12.2,79,29.95,10.0,NW,9.2,-,N/A,,Overcast,320,2013-01-31 03:31:00
9:55 PM,16.2,9.9,76,29.96,10.0,NW,8.1,-,N/A,,Partly Cloudy,320,2013-01-31 03:55:00
10:55 PM,14.5,9.5,80,29.96,10.0,NW,6.9,-,N/A,,Overcast,310,2013-01-31 04:55:00
11:55 PM,16.3,8.1,70,29.99,10.0,NW,9.2,-,N/A,,Overcast,310,2013-01-31 05:55:00